sensor_id;sensor_type;location;lat;lon;timestamp;P1;durP1;ratioP1;P2;durP2;ratioP2
61391;SDS011;47261;52.892;5.738;2023-02-28T00:00:18;14.75;;;2.80;;
61391;SDS011;47261;52.892;5.738;2023-02-28T00:02:44;12.68;;;3.00;;
61391;SDS011;47261;52.892;5.738;2023-02-28T00:05:11;10.52;;;2.80;;
61391;SDS011;47261;52.892;5.738;2023-02-28T00:07:39;12.13;;;3.17;;
61391;SDS011;47261;52.892;5.738;2023-02-28T00:10:05;12.83;;;2.80;;
61391;SDS011;47261;52.892;5.738;2023-02-28T00:12:33;11.98;;;2.95;;
61391;SDS011;47261;52.892;5.738;2023-02-28T00:14:59;9.52;;;2.80;;
61391;SDS011;47261;52.892;5.738;2023-02-28T00:17:25;11.45;;;2.65;;
61391;SDS011;47261;52.892;5.738;2023-02-28T00:19:51;10.33;;;1.90;;
61391;SDS011;47261;52.892;5.738;2023-02-28T00:22:17;11.57;;;2.58;;
61391;SDS011;47261;52.892;5.738;2023-02-28T00:24:45;10.88;;;2.78;;
61391;SDS011;47261;52.892;5.738;2023-02-28T00:27:12;12.37;;;3.03;;
61391;SDS011;47261;52.892;5.738;2023-02-28T00:29:38;12.07;;;2.40;;
61391;SDS011;47261;52.892;5.738;2023-02-28T00:32:04;12.38;;;2.78;;
61391;SDS011;47261;52.892;5.738;2023-02-28T00:34:31;11.35;;;2.90;;
61391;SDS011;47261;52.892;5.738;2023-02-28T00:37:02;12.43;;;2.40;;
61391;SDS011;47261;52.892;5.738;2023-02-28T00:39:29;11.48;;;2.72;;
61391;SDS011;47261;52.892;5.738;2023-02-28T00:41:55;8.60;;;2.45;;
61391;SDS011;47261;52.892;5.738;2023-02-28T00:44:20;11.60;;;2.47;;
61391;SDS011;47261;52.892;5.738;2023-02-28T00:46:46;12.95;;;2.40;;
61391;SDS011;47261;52.892;5.738;2023-02-28T00:49:12;10.33;;;2.10;;
61391;SDS011;47261;52.892;5.738;2023-02-28T00:51:38;10.23;;;2.70;;
61391;SDS011;47261;52.892;5.738;2023-02-28T00:54:03;8.63;;;2.10;;
61391;SDS011;47261;52.892;5.738;2023-02-28T00:56:29;7.53;;;2.15;;
61391;SDS011;47261;52.892;5.738;2023-02-28T00:58:55;10.87;;;2.20;;
61391;SDS011;47261;52.892;5.738;2023-02-28T01:01:20;9.03;;;2.60;;
61391;SDS011;47261;52.892;5.738;2023-02-28T01:03:46;19.20;;;3.28;;
61391;SDS011;47261;52.892;5.738;2023-02-28T01:06:11;7.70;;;2.13;;
61391;SDS011;47261;52.892;5.738;2023-02-28T01:08:37;9.68;;;2.17;;
61391;SDS011;47261;52.892;5.738;2023-02-28T01:11:13;8.43;;;2.17;;
61391;SDS011;47261;52.892;5.738;2023-02-28T01:13:41;11.13;;;2.47;;
61391;SDS011;47261;52.892;5.738;2023-02-28T01:16:07;10.10;;;2.45;;
61391;SDS011;47261;52.892;5.738;2023-02-28T01:18:33;11.17;;;2.67;;
61391;SDS011;47261;52.892;5.738;2023-02-28T01:21:03;12.70;;;2.97;;
61391;SDS011;47261;52.892;5.738;2023-02-28T01:23:32;8.93;;;2.57;;
61391;SDS011;47261;52.892;5.738;2023-02-28T01:26:02;9.10;;;2.53;;
61391;SDS011;47261;52.892;5.738;2023-02-28T01:28:36;14.68;;;2.65;;
61391;SDS011;47261;52.892;5.738;2023-02-28T01:31:02;11.73;;;2.83;;
61391;SDS011;47261;52.892;5.738;2023-02-28T01:33:28;9.02;;;2.72;;
61391;SDS011;47261;52.892;5.738;2023-02-28T01:36:03;10.63;;;2.45;;
61391;SDS011;47261;52.892;5.738;2023-02-28T01:38:31;10.02;;;2.85;;
61391;SDS011;47261;52.892;5.738;2023-02-28T01:40:57;10.07;;;3.45;;
61391;SDS011;47261;52.892;5.738;2023-02-28T01:43:30;10.00;;;3.50;;
61391;SDS011;47261;52.892;5.738;2023-02-28T01:46:16;8.90;;;3.17;;
61391;SDS011;47261;52.892;5.738;2023-02-28T01:49:02;14.73;;;3.20;;
61391;SDS011;47261;52.892;5.738;2023-02-28T01:51:34;9.80;;;3.13;;
61391;SDS011;47261;52.892;5.738;2023-02-28T01:54:24;12.65;;;2.78;;
61391;SDS011;47261;52.892;5.738;2023-02-28T01:57:00;15.45;;;3.30;;
61391;SDS011;47261;52.892;5.738;2023-02-28T01:59:31;13.25;;;3.55;;
61391;SDS011;47261;52.892;5.738;2023-02-28T02:02:02;14.03;;;3.50;;
61391;SDS011;47261;52.892;5.738;2023-02-28T02:04:31;17.48;;;3.22;;
61391;SDS011;47261;52.892;5.738;2023-02-28T02:07:02;18.58;;;3.45;;
61391;SDS011;47261;52.892;5.738;2023-02-28T02:09:28;17.67;;;3.70;;
61391;SDS011;47261;52.892;5.738;2023-02-28T02:11:54;11.67;;;3.23;;
61391;SDS011;47261;52.892;5.738;2023-02-28T02:14:40;11.90;;;3.53;;
61391;SDS011;47261;52.892;5.738;2023-02-28T02:17:21;16.38;;;3.80;;
61391;SDS011;47261;52.892;5.738;2023-02-28T02:23:27;13.57;;;3.38;;
61391;SDS011;47261;52.892;5.738;2023-02-28T02:29:24;17.17;;;3.28;;
61391;SDS011;47261;52.892;5.738;2023-02-28T02:37:33;14.40;;;3.40;;
61391;SDS011;47261;52.892;5.738;2023-02-28T02:42:39;8.98;;;2.97;;
61391;SDS011;47261;52.892;5.738;2023-02-28T02:45:17;12.38;;;3.10;;
61391;SDS011;47261;52.892;5.738;2023-02-28T02:47:49;12.70;;;3.03;;
61391;SDS011;47261;52.892;5.738;2023-02-28T02:50:21;14.60;;;3.25;;
61391;SDS011;47261;52.892;5.738;2023-02-28T02:52:52;11.43;;;2.90;;
61391;SDS011;47261;52.892;5.738;2023-02-28T02:55:22;8.70;;;2.83;;
61391;SDS011;47261;52.892;5.738;2023-02-28T02:57:53;10.40;;;3.28;;
61391;SDS011;47261;52.892;5.738;2023-02-28T03:00:23;23.02;;;3.58;;
61391;SDS011;47261;52.892;5.738;2023-02-28T03:02:54;13.30;;;3.50;;
61391;SDS011;47261;52.892;5.738;2023-02-28T03:05:29;13.55;;;3.42;;
61391;SDS011;47261;52.892;5.738;2023-02-28T03:08:12;16.52;;;3.65;;
61391;SDS011;47261;52.892;5.738;2023-02-28T03:10:40;11.40;;;3.80;;
61391;SDS011;47261;52.892;5.738;2023-02-28T03:13:33;16.47;;;3.43;;
61391;SDS011;47261;52.892;5.738;2023-02-28T03:27:11;10.83;;;3.07;;
61391;SDS011;47261;52.892;5.738;2023-02-28T03:29:58;11.32;;;3.17;;
61391;SDS011;47261;52.892;5.738;2023-02-28T03:32:42;14.65;;;3.17;;
61391;SDS011;47261;52.892;5.738;2023-02-28T03:35:23;12.98;;;3.35;;
61391;SDS011;47261;52.892;5.738;2023-02-28T03:37:53;9.13;;;3.10;;
61391;SDS011;47261;52.892;5.738;2023-02-28T03:40:27;15.70;;;3.83;;
61391;SDS011;47261;52.892;5.738;2023-02-28T03:42:59;9.93;;;3.05;;
61391;SDS011;47261;52.892;5.738;2023-02-28T03:45:35;10.95;;;3.30;;
61391;SDS011;47261;52.892;5.738;2023-02-28T03:48:12;9.48;;;3.55;;
61391;SDS011;47261;52.892;5.738;2023-02-28T03:50:39;15.00;;;3.22;;
61391;SDS011;47261;52.892;5.738;2023-02-28T03:53:15;15.13;;;3.17;;
61391;SDS011;47261;52.892;5.738;2023-02-28T03:55:50;9.93;;;3.50;;
61391;SDS011;47261;52.892;5.738;2023-02-28T03:58:26;15.15;;;3.90;;
61391;SDS011;47261;52.892;5.738;2023-02-28T04:01:08;9.63;;;3.53;;
61391;SDS011;47261;52.892;5.738;2023-02-28T04:03:41;16.15;;;3.58;;
61391;SDS011;47261;52.892;5.738;2023-02-28T04:06:07;11.45;;;3.50;;
61391;SDS011;47261;52.892;5.738;2023-02-28T04:08:39;16.55;;;4.00;;
61391;SDS011;47261;52.892;5.738;2023-02-28T04:11:06;13.83;;;3.50;;
61391;SDS011;47261;52.892;5.738;2023-02-28T04:13:41;12.05;;;3.58;;
61391;SDS011;47261;52.892;5.738;2023-02-28T04:16:08;12.70;;;4.03;;
61391;SDS011;47261;52.892;5.738;2023-02-28T04:18:40;8.65;;;3.80;;
61391;SDS011;47261;52.892;5.738;2023-02-28T04:21:08;15.60;;;3.70;;
61391;SDS011;47261;52.892;5.738;2023-02-28T04:23:34;16.25;;;4.15;;
61391;SDS011;47261;52.892;5.738;2023-02-28T04:25:59;14.18;;;3.28;;
61391;SDS011;47261;52.892;5.738;2023-02-28T04:28:25;14.87;;;3.77;;
61391;SDS011;47261;52.892;5.738;2023-02-28T04:30:55;13.13;;;3.80;;
61391;SDS011;47261;52.892;5.738;2023-02-28T04:33:21;9.60;;;2.67;;
61391;SDS011;47261;52.892;5.738;2023-02-28T04:35:47;25.10;;;3.90;;
61391;SDS011;47261;52.892;5.738;2023-02-28T04:38:12;9.07;;;3.37;;
61391;SDS011;47261;52.892;5.738;2023-02-28T04:40:38;14.20;;;3.17;;
61391;SDS011;47261;52.892;5.738;2023-02-28T04:43:03;10.60;;;2.63;;
61391;SDS011;47261;52.892;5.738;2023-02-28T04:45:29;10.03;;;3.23;;
61391;SDS011;47261;52.892;5.738;2023-02-28T04:47:57;8.63;;;2.63;;
61391;SDS011;47261;52.892;5.738;2023-02-28T04:50:23;5.85;;;1.90;;
61391;SDS011;47261;52.892;5.738;2023-02-28T04:52:48;10.27;;;2.50;;
61391;SDS011;47261;52.892;5.738;2023-02-28T04:55:14;6.95;;;2.47;;
61391;SDS011;47261;52.892;5.738;2023-02-28T04:57:40;10.67;;;2.47;;
61391;SDS011;47261;52.892;5.738;2023-02-28T05:00:08;7.72;;;2.85;;
61391;SDS011;47261;52.892;5.738;2023-02-28T05:02:36;9.48;;;2.95;;
61391;SDS011;47261;52.892;5.738;2023-02-28T05:05:04;9.02;;;3.00;;
61391;SDS011;47261;52.892;5.738;2023-02-28T05:07:30;4.88;;;1.20;;
61391;SDS011;47261;52.892;5.738;2023-02-28T05:09:55;16.40;;;2.60;;
61391;SDS011;47261;52.892;5.738;2023-02-28T05:12:21;8.23;;;3.38;;
61391;SDS011;47261;52.892;5.738;2023-02-28T05:14:46;7.50;;;2.73;;
61391;SDS011;47261;52.892;5.738;2023-02-28T05:17:12;8.88;;;2.75;;
61391;SDS011;47261;52.892;5.738;2023-02-28T05:19:38;9.97;;;2.80;;
61391;SDS011;47261;52.892;5.738;2023-02-28T05:22:03;10.35;;;2.30;;
61391;SDS011;47261;52.892;5.738;2023-02-28T05:24:29;7.80;;;2.83;;
61391;SDS011;47261;52.892;5.738;2023-02-28T05:26:54;6.97;;;2.97;;
61391;SDS011;47261;52.892;5.738;2023-02-28T05:29:20;7.45;;;2.78;;
61391;SDS011;47261;52.892;5.738;2023-02-28T05:31:47;8.10;;;3.70;;
61391;SDS011;47261;52.892;5.738;2023-02-28T05:34:13;9.77;;;3.33;;
61391;SDS011;47261;52.892;5.738;2023-02-28T05:36:40;10.50;;;2.83;;
61391;SDS011;47261;52.892;5.738;2023-02-28T05:39:06;12.40;;;4.25;;
61391;SDS011;47261;52.892;5.738;2023-02-28T05:41:37;11.65;;;4.60;;
61391;SDS011;47261;52.892;5.738;2023-02-28T05:44:07;9.57;;;3.25;;
61391;SDS011;47261;52.892;5.738;2023-02-28T05:46:32;11.25;;;4.00;;
61391;SDS011;47261;52.892;5.738;2023-02-28T05:48:58;9.57;;;4.50;;
61391;SDS011;47261;52.892;5.738;2023-02-28T05:51:25;6.55;;;2.72;;
61391;SDS011;47261;52.892;5.738;2023-02-28T05:53:51;11.18;;;3.65;;
61391;SDS011;47261;52.892;5.738;2023-02-28T05:56:16;11.23;;;4.30;;
61391;SDS011;47261;52.892;5.738;2023-02-28T05:58:42;11.75;;;3.85;;
61391;SDS011;47261;52.892;5.738;2023-02-28T06:01:21;11.57;;;3.80;;
61391;SDS011;47261;52.892;5.738;2023-02-28T06:04:08;7.93;;;3.33;;
61391;SDS011;47261;52.892;5.738;2023-02-28T06:06:35;5.05;;;1.90;;
61391;SDS011;47261;52.892;5.738;2023-02-28T06:09:02;8.50;;;3.07;;
61391;SDS011;47261;52.892;5.738;2023-02-28T06:11:31;12.00;;;3.92;;
61391;SDS011;47261;52.892;5.738;2023-02-28T06:13:57;7.57;;;2.38;;
61391;SDS011;47261;52.892;5.738;2023-02-28T06:16:25;11.65;;;4.38;;
61391;SDS011;47261;52.892;5.738;2023-02-28T06:18:56;8.73;;;3.33;;
61391;SDS011;47261;52.892;5.738;2023-02-28T06:21:22;13.18;;;4.68;;
61391;SDS011;47261;52.892;5.738;2023-02-28T06:23:48;13.85;;;5.57;;
61391;SDS011;47261;52.892;5.738;2023-02-28T06:26:13;9.67;;;4.20;;
61391;SDS011;47261;52.892;5.738;2023-02-28T06:28:39;8.27;;;3.67;;
61391;SDS011;47261;52.892;5.738;2023-02-28T06:31:09;10.48;;;4.20;;
61391;SDS011;47261;52.892;5.738;2023-02-28T06:33:36;15.88;;;6.50;;
61391;SDS011;47261;52.892;5.738;2023-02-28T06:36:02;13.90;;;6.03;;
61391;SDS011;47261;52.892;5.738;2023-02-28T06:38:29;14.93;;;5.90;;
61391;SDS011;47261;52.892;5.738;2023-02-28T06:40:56;18.47;;;6.43;;
61391;SDS011;47261;52.892;5.738;2023-02-28T06:43:22;11.43;;;4.95;;
61391;SDS011;47261;52.892;5.738;2023-02-28T06:45:48;11.18;;;3.88;;
61391;SDS011;47261;52.892;5.738;2023-02-28T06:48:14;13.35;;;4.68;;
61391;SDS011;47261;52.892;5.738;2023-02-28T06:50:40;13.07;;;4.77;;
61391;SDS011;47261;52.892;5.738;2023-02-28T06:53:05;11.15;;;5.10;;
61391;SDS011;47261;52.892;5.738;2023-02-28T06:55:31;17.97;;;7.27;;
61391;SDS011;47261;52.892;5.738;2023-02-28T06:57:57;13.05;;;5.75;;
61391;SDS011;47261;52.892;5.738;2023-02-28T07:00:23;18.33;;;7.28;;
61391;SDS011;47261;52.892;5.738;2023-02-28T07:02:50;22.23;;;8.05;;
61391;SDS011;47261;52.892;5.738;2023-02-28T07:05:15;13.70;;;5.10;;
61391;SDS011;47261;52.892;5.738;2023-02-28T07:07:41;17.05;;;7.20;;
61391;SDS011;47261;52.892;5.738;2023-02-28T07:10:12;10.15;;;3.50;;
61391;SDS011;47261;52.892;5.738;2023-02-28T07:12:39;20.38;;;7.47;;
61391;SDS011;47261;52.892;5.738;2023-02-28T07:15:05;18.90;;;6.95;;
61391;SDS011;47261;52.892;5.738;2023-02-28T07:17:31;16.23;;;6.50;;
61391;SDS011;47261;52.892;5.738;2023-02-28T07:19:57;19.38;;;7.93;;
61391;SDS011;47261;52.892;5.738;2023-02-28T07:22:22;19.13;;;7.13;;
61391;SDS011;47261;52.892;5.738;2023-02-28T07:24:48;15.35;;;5.68;;
61391;SDS011;47261;52.892;5.738;2023-02-28T07:27:13;21.00;;;8.30;;
61391;SDS011;47261;52.892;5.738;2023-02-28T07:29:49;14.93;;;6.00;;
61391;SDS011;47261;52.892;5.738;2023-02-28T07:32:14;22.05;;;8.82;;
61391;SDS011;47261;52.892;5.738;2023-02-28T07:34:40;15.60;;;6.47;;
61391;SDS011;47261;52.892;5.738;2023-02-28T07:37:06;14.45;;;6.20;;
61391;SDS011;47261;52.892;5.738;2023-02-28T07:39:32;18.00;;;7.90;;
61391;SDS011;47261;52.892;5.738;2023-02-28T07:41:57;22.00;;;9.23;;
61391;SDS011;47261;52.892;5.738;2023-02-28T07:44:25;20.33;;;8.98;;
61391;SDS011;47261;52.892;5.738;2023-02-28T07:46:51;18.00;;;8.15;;
61391;SDS011;47261;52.892;5.738;2023-02-28T07:49:17;17.17;;;7.07;;
61391;SDS011;47261;52.892;5.738;2023-02-28T07:51:43;16.35;;;6.28;;
61391;SDS011;47261;52.892;5.738;2023-02-28T07:54:09;19.13;;;6.67;;
61391;SDS011;47261;52.892;5.738;2023-02-28T07:56:35;17.65;;;6.95;;
61391;SDS011;47261;52.892;5.738;2023-02-28T07:59:00;21.37;;;6.53;;
61391;SDS011;47261;52.892;5.738;2023-02-28T08:01:26;13.30;;;6.30;;
61391;SDS011;47261;52.892;5.738;2023-02-28T08:03:52;17.58;;;6.80;;
61391;SDS011;47261;52.892;5.738;2023-02-28T08:06:21;8.05;;;3.42;;
61391;SDS011;47261;52.892;5.738;2023-02-28T08:08:47;11.03;;;5.00;;
61391;SDS011;47261;52.892;5.738;2023-02-28T08:11:14;11.20;;;4.72;;
61391;SDS011;47261;52.892;5.738;2023-02-28T08:13:41;10.00;;;4.50;;
61391;SDS011;47261;52.892;5.738;2023-02-28T08:16:10;9.73;;;4.45;;
61391;SDS011;47261;52.892;5.738;2023-02-28T08:18:37;8.57;;;3.65;;
61391;SDS011;47261;52.892;5.738;2023-02-28T08:21:06;14.37;;;6.00;;
61391;SDS011;47261;52.892;5.738;2023-02-28T08:23:33;21.58;;;8.88;;
61391;SDS011;47261;52.892;5.738;2023-02-28T08:25:59;16.53;;;7.13;;
61391;SDS011;47261;52.892;5.738;2023-02-28T08:28:24;12.27;;;6.22;;
61391;SDS011;47261;52.892;5.738;2023-02-28T08:30:50;18.13;;;8.47;;
61391;SDS011;47261;52.892;5.738;2023-02-28T08:33:16;22.07;;;7.97;;
61391;SDS011;47261;52.892;5.738;2023-02-28T08:35:41;43.92;;;12.55;;
61391;SDS011;47261;52.892;5.738;2023-02-28T08:38:07;36.83;;;12.70;;
61391;SDS011;47261;52.892;5.738;2023-02-28T08:40:32;18.50;;;7.40;;
61391;SDS011;47261;52.892;5.738;2023-02-28T08:42:58;14.00;;;6.20;;
61391;SDS011;47261;52.892;5.738;2023-02-28T08:45:24;11.45;;;5.38;;
61391;SDS011;47261;52.892;5.738;2023-02-28T08:47:50;17.63;;;7.68;;
61391;SDS011;47261;52.892;5.738;2023-02-28T08:50:17;15.83;;;7.73;;
61391;SDS011;47261;52.892;5.738;2023-02-28T08:52:43;15.90;;;6.82;;
61391;SDS011;47261;52.892;5.738;2023-02-28T08:55:09;15.15;;;7.57;;
61391;SDS011;47261;52.892;5.738;2023-02-28T08:57:35;20.38;;;9.45;;
61391;SDS011;47261;52.892;5.738;2023-02-28T09:00:02;14.27;;;6.67;;
61391;SDS011;47261;52.892;5.738;2023-02-28T09:02:29;18.92;;;8.15;;
61391;SDS011;47261;52.892;5.738;2023-02-28T09:04:56;15.80;;;6.63;;
61391;SDS011;47261;52.892;5.738;2023-02-28T09:07:23;12.32;;;5.55;;
61391;SDS011;47261;52.892;5.738;2023-02-28T09:09:49;16.67;;;6.38;;
61391;SDS011;47261;52.892;5.738;2023-02-28T09:12:23;14.97;;;7.93;;
61391;SDS011;47261;52.892;5.738;2023-02-28T09:14:50;19.40;;;7.40;;
61391;SDS011;47261;52.892;5.738;2023-02-28T09:17:16;17.50;;;6.93;;
61391;SDS011;47261;52.892;5.738;2023-02-28T09:19:43;17.10;;;7.03;;
61391;SDS011;47261;52.892;5.738;2023-02-28T09:22:09;19.48;;;8.23;;
61391;SDS011;47261;52.892;5.738;2023-02-28T09:24:36;14.07;;;7.70;;
61391;SDS011;47261;52.892;5.738;2023-02-28T09:27:02;16.08;;;7.40;;
61391;SDS011;47261;52.892;5.738;2023-02-28T09:29:28;18.45;;;8.93;;
61391;SDS011;47261;52.892;5.738;2023-02-28T09:31:54;16.27;;;8.37;;
61391;SDS011;47261;52.892;5.738;2023-02-28T09:34:21;21.48;;;9.40;;
61391;SDS011;47261;52.892;5.738;2023-02-28T09:36:46;18.80;;;9.27;;
61391;SDS011;47261;52.892;5.738;2023-02-28T09:39:12;17.95;;;8.52;;
61391;SDS011;47261;52.892;5.738;2023-02-28T09:41:41;18.25;;;8.55;;
61391;SDS011;47261;52.892;5.738;2023-02-28T09:44:48;16.30;;;7.82;;
61391;SDS011;47261;52.892;5.738;2023-02-28T09:47:13;19.30;;;7.97;;
61391;SDS011;47261;52.892;5.738;2023-02-28T09:49:47;14.15;;;6.80;;
61391;SDS011;47261;52.892;5.738;2023-02-28T09:52:14;13.10;;;6.43;;
61391;SDS011;47261;52.892;5.738;2023-02-28T09:54:46;13.43;;;6.05;;
61391;SDS011;47261;52.892;5.738;2023-02-28T09:57:27;12.52;;;6.00;;
61391;SDS011;47261;52.892;5.738;2023-02-28T10:05:22;13.63;;;5.63;;
61391;SDS011;47261;52.892;5.738;2023-02-28T10:08:07;16.63;;;6.32;;
61391;SDS011;47261;52.892;5.738;2023-02-28T10:10:45;13.07;;;5.60;;
61391;SDS011;47261;52.892;5.738;2023-02-28T10:13:36;13.80;;;6.10;;
61391;SDS011;47261;52.892;5.738;2023-02-28T10:16:11;15.20;;;6.28;;
61391;SDS011;47261;52.892;5.738;2023-02-28T10:18:43;11.05;;;5.55;;
61391;SDS011;47261;52.892;5.738;2023-02-28T10:21:27;12.05;;;5.22;;
61391;SDS011;47261;52.892;5.738;2023-02-28T10:24:17;10.95;;;5.35;;
61391;SDS011;47261;52.892;5.738;2023-02-28T10:26:48;9.70;;;5.20;;
61391;SDS011;47261;52.892;5.738;2023-02-28T10:29:17;12.13;;;5.57;;
61391;SDS011;47261;52.892;5.738;2023-02-28T10:31:43;9.07;;;4.60;;
61391;SDS011;47261;52.892;5.738;2023-02-28T10:34:10;9.77;;;4.57;;
61391;SDS011;47261;52.892;5.738;2023-02-28T10:36:37;11.10;;;4.07;;
61391;SDS011;47261;52.892;5.738;2023-02-28T10:39:33;8.63;;;3.90;;
61391;SDS011;47261;52.892;5.738;2023-02-28T10:42:03;10.80;;;3.87;;
61391;SDS011;47261;52.892;5.738;2023-02-28T10:44:29;7.53;;;2.60;;
61391;SDS011;47261;52.892;5.738;2023-02-28T10:46:55;9.98;;;3.35;;
61391;SDS011;47261;52.892;5.738;2023-02-28T10:49:22;7.33;;;3.20;;
61391;SDS011;47261;52.892;5.738;2023-02-28T10:51:53;8.50;;;3.53;;
61391;SDS011;47261;52.892;5.738;2023-02-28T10:54:27;7.68;;;3.00;;
61391;SDS011;47261;52.892;5.738;2023-02-28T11:00:17;8.50;;;2.80;;
61391;SDS011;47261;52.892;5.738;2023-02-28T11:02:50;6.83;;;2.20;;
61391;SDS011;47261;52.892;5.738;2023-02-28T11:08:12;6.35;;;1.92;;
61391;SDS011;47261;52.892;5.738;2023-02-28T11:10:43;5.68;;;2.08;;
61391;SDS011;47261;52.892;5.738;2023-02-28T11:13:17;6.43;;;2.20;;
61391;SDS011;47261;52.892;5.738;2023-02-28T11:15:52;7.63;;;2.33;;
61391;SDS011;47261;52.892;5.738;2023-02-28T11:19:01;6.63;;;2.15;;
61391;SDS011;47261;52.892;5.738;2023-02-28T11:21:15;6.30;;;2.08;;
61391;SDS011;47261;52.892;5.738;2023-02-28T11:23:44;6.00;;;2.28;;
61391;SDS011;47261;52.892;5.738;2023-02-28T11:26:10;5.05;;;2.03;;
61391;SDS011;47261;52.892;5.738;2023-02-28T11:28:39;5.57;;;2.17;;
61391;SDS011;47261;52.892;5.738;2023-02-28T11:33:41;5.40;;;1.60;;
61391;SDS011;47261;52.892;5.738;2023-02-28T11:36:20;8.52;;;2.25;;
61391;SDS011;47261;52.892;5.738;2023-02-28T11:38:55;4.45;;;1.60;;
61391;SDS011;47261;52.892;5.738;2023-02-28T11:47:20;8.23;;;1.92;;
61391;SDS011;47261;52.892;5.738;2023-02-28T11:49:56;5.22;;;1.83;;
61391;SDS011;47261;52.892;5.738;2023-02-28T11:52:39;5.78;;;2.00;;
61391;SDS011;47261;52.892;5.738;2023-02-28T11:55:35;8.33;;;2.27;;
61391;SDS011;47261;52.892;5.738;2023-02-28T12:00:40;5.28;;;1.63;;
61391;SDS011;47261;52.892;5.738;2023-02-28T12:08:54;8.30;;;2.17;;
61391;SDS011;47261;52.892;5.738;2023-02-28T12:17:03;5.47;;;1.65;;
61391;SDS011;47261;52.892;5.738;2023-02-28T12:19:45;5.68;;;1.88;;
61391;SDS011;47261;52.892;5.738;2023-02-28T12:22:47;7.30;;;1.90;;
61391;SDS011;47261;52.892;5.738;2023-02-28T12:28:11;6.32;;;1.83;;
61391;SDS011;47261;52.892;5.738;2023-02-28T12:30:47;6.32;;;2.33;;
61391;SDS011;47261;52.892;5.738;2023-02-28T12:33:20;8.02;;;2.35;;
61391;SDS011;47261;52.892;5.738;2023-02-28T12:35:51;8.40;;;2.60;;
61391;SDS011;47261;52.892;5.738;2023-02-28T12:43:40;8.35;;;2.92;;
61391;SDS011;47261;52.892;5.738;2023-02-28T12:46:13;8.25;;;2.80;;
61391;SDS011;47261;52.892;5.738;2023-02-28T12:48:44;11.00;;;3.00;;
61391;SDS011;47261;52.892;5.738;2023-02-28T12:51:16;9.65;;;3.63;;
61391;SDS011;47261;52.892;5.738;2023-02-28T13:04:57;10.27;;;3.63;;
61391;SDS011;47261;52.892;5.738;2023-02-28T13:07:57;10.63;;;3.55;;
61391;SDS011;47261;52.892;5.738;2023-02-28T13:10:39;10.13;;;3.60;;
61391;SDS011;47261;52.892;5.738;2023-02-28T13:13:15;10.32;;;3.28;;
61391;SDS011;47261;52.892;5.738;2023-02-28T13:15:56;9.03;;;3.27;;
61391;SDS011;47261;52.892;5.738;2023-02-28T13:18:35;9.23;;;3.22;;
61391;SDS011;47261;52.892;5.738;2023-02-28T13:21:05;8.43;;;3.10;;
61391;SDS011;47261;52.892;5.738;2023-02-28T13:23:40;8.00;;;2.88;;
61391;SDS011;47261;52.892;5.738;2023-02-28T13:26:06;9.27;;;3.20;;
61391;SDS011;47261;52.892;5.738;2023-02-28T13:31:16;9.35;;;2.90;;
61391;SDS011;47261;52.892;5.738;2023-02-28T13:38:43;9.80;;;3.05;;
61391;SDS011;47261;52.892;5.738;2023-02-28T13:46:32;9.35;;;2.90;;
61391;SDS011;47261;52.892;5.738;2023-02-28T13:49:31;9.52;;;2.90;;
61391;SDS011;47261;52.892;5.738;2023-02-28T13:57:30;6.63;;;2.67;;
61391;SDS011;47261;52.892;5.738;2023-02-28T14:09:06;7.30;;;1.80;;
61391;SDS011;47261;52.892;5.738;2023-02-28T14:11:44;5.82;;;2.20;;
61391;SDS011;47261;52.892;5.738;2023-02-28T14:14:56;5.78;;;1.83;;
61391;SDS011;47261;52.892;5.738;2023-02-28T14:16:59;7.32;;;1.90;;
61391;SDS011;47261;52.892;5.738;2023-02-28T14:19:27;6.67;;;2.23;;
61391;SDS011;47261;52.892;5.738;2023-02-28T14:24:46;7.95;;;2.15;;
61391;SDS011;47261;52.892;5.738;2023-02-28T14:30:03;5.60;;;2.20;;
61391;SDS011;47261;52.892;5.738;2023-02-28T14:33:11;5.83;;;2.20;;
61391;SDS011;47261;52.892;5.738;2023-02-28T14:36:03;6.68;;;2.60;;
61391;SDS011;47261;52.892;5.738;2023-02-28T14:38:43;7.95;;;2.25;;
61391;SDS011;47261;52.892;5.738;2023-02-28T14:41:37;5.88;;;2.10;;
61391;SDS011;47261;52.892;5.738;2023-02-28T14:46:55;7.67;;;2.50;;
61391;SDS011;47261;52.892;5.738;2023-02-28T14:54:40;7.72;;;2.50;;
61391;SDS011;47261;52.892;5.738;2023-02-28T14:57:06;8.45;;;3.63;;
61391;SDS011;47261;52.892;5.738;2023-02-28T14:59:45;6.47;;;2.43;;
61391;SDS011;47261;52.892;5.738;2023-02-28T15:02:18;8.82;;;3.13;;
61391;SDS011;47261;52.892;5.738;2023-02-28T15:05:01;12.85;;;4.13;;
61391;SDS011;47261;52.892;5.738;2023-02-28T15:07:42;8.27;;;3.30;;
61391;SDS011;47261;52.892;5.738;2023-02-28T15:10:23;7.78;;;2.88;;
61391;SDS011;47261;52.892;5.738;2023-02-28T15:12:52;6.45;;;2.35;;
61391;SDS011;47261;52.892;5.738;2023-02-28T15:15:21;6.80;;;2.58;;
61391;SDS011;47261;52.892;5.738;2023-02-28T15:17:51;8.25;;;2.38;;
61391;SDS011;47261;52.892;5.738;2023-02-28T15:20:21;6.90;;;2.43;;
61391;SDS011;47261;52.892;5.738;2023-02-28T15:22:49;6.25;;;2.22;;
61391;SDS011;47261;52.892;5.738;2023-02-28T15:25:18;7.38;;;2.30;;
61391;SDS011;47261;52.892;5.738;2023-02-28T15:27:50;6.18;;;2.33;;
61391;SDS011;47261;52.892;5.738;2023-02-28T15:30:19;6.35;;;2.10;;
61391;SDS011;47261;52.892;5.738;2023-02-28T15:35:50;6.82;;;2.47;;
61391;SDS011;47261;52.892;5.738;2023-02-28T15:38:26;6.35;;;2.30;;
61391;SDS011;47261;52.892;5.738;2023-02-28T15:40:56;6.13;;;2.13;;
61391;SDS011;47261;52.892;5.738;2023-02-28T15:48:56;7.25;;;2.50;;
61391;SDS011;47261;52.892;5.738;2023-02-28T15:51:36;8.00;;;2.42;;
61391;SDS011;47261;52.892;5.738;2023-02-28T15:54:07;5.82;;;2.53;;
61391;SDS011;47261;52.892;5.738;2023-02-28T15:56:44;7.63;;;2.65;;
61391;SDS011;47261;52.892;5.738;2023-02-28T15:59:16;8.90;;;2.97;;
61391;SDS011;47261;52.892;5.738;2023-02-28T16:01:44;7.82;;;2.75;;
61391;SDS011;47261;52.892;5.738;2023-02-28T16:04:14;10.02;;;2.85;;
61391;SDS011;47261;52.892;5.738;2023-02-28T16:09:22;7.68;;;2.85;;
61391;SDS011;47261;52.892;5.738;2023-02-28T16:11:49;7.07;;;2.70;;
61391;SDS011;47261;52.892;5.738;2023-02-28T16:14:18;6.55;;;2.60;;
61391;SDS011;47261;52.892;5.738;2023-02-28T16:16:49;6.03;;;2.72;;
61391;SDS011;47261;52.892;5.738;2023-02-28T16:19:17;7.93;;;2.87;;
61391;SDS011;47261;52.892;5.738;2023-02-28T16:21:43;7.78;;;2.80;;
61391;SDS011;47261;52.892;5.738;2023-02-28T16:24:09;8.55;;;3.10;;
61391;SDS011;47261;52.892;5.738;2023-02-28T16:26:35;7.00;;;3.00;;
61391;SDS011;47261;52.892;5.738;2023-02-28T16:29:04;7.37;;;2.80;;
61391;SDS011;47261;52.892;5.738;2023-02-28T16:31:31;7.43;;;2.90;;
61391;SDS011;47261;52.892;5.738;2023-02-28T16:34:02;10.05;;;3.08;;
61391;SDS011;47261;52.892;5.738;2023-02-28T16:36:29;7.30;;;3.00;;
61391;SDS011;47261;52.892;5.738;2023-02-28T16:38:55;8.30;;;3.92;;
61391;SDS011;47261;52.892;5.738;2023-02-28T16:41:22;8.93;;;3.73;;
61391;SDS011;47261;52.892;5.738;2023-02-28T16:43:51;7.45;;;3.20;;
61391;SDS011;47261;52.892;5.738;2023-02-28T16:46:19;9.13;;;3.22;;
61391;SDS011;47261;52.892;5.738;2023-02-28T16:48:46;7.53;;;3.42;;
61391;SDS011;47261;52.892;5.738;2023-02-28T16:51:16;8.15;;;3.20;;
61391;SDS011;47261;52.892;5.738;2023-02-28T16:53:42;7.40;;;2.97;;
61391;SDS011;47261;52.892;5.738;2023-02-28T16:56:14;8.80;;;2.50;;
61391;SDS011;47261;52.892;5.738;2023-02-28T16:58:45;10.32;;;3.08;;
61391;SDS011;47261;52.892;5.738;2023-02-28T17:01:11;7.85;;;3.08;;
61391;SDS011;47261;52.892;5.738;2023-02-28T17:03:37;9.47;;;3.00;;
61391;SDS011;47261;52.892;5.738;2023-02-28T17:06:05;7.30;;;3.20;;
61391;SDS011;47261;52.892;5.738;2023-02-28T17:08:32;9.23;;;3.47;;
61391;SDS011;47261;52.892;5.738;2023-02-28T17:11:00;8.00;;;2.78;;